Time;durP1;ratioP1;P1;durP2;ratioP2;P2;SDS_P1;SDS_P2;PMS_P1;PMS_P2;Temp;Humidity;BMP_temperature;BMP_pressure;BME280_temperature;BME280_humidity;BME280_pressure;Samples;Min_cycle;Max_cycle;Signal;HPM_P1;HPM_P2
2023/01/22 00:00:04;0.00;0.00;0.62;0.00;0.00;0.62;1.53;0.90;;;20.90;23.80;;;;;;2250585;61;20394;-68
2023/01/22 00:02:57;0.00;0.00;0.62;0.00;0.00;0.62;1.83;0.90;;;20.90;23.80;;;;;;2250329;61;20370;-67
2023/01/22 00:05:42;0.00;0.00;0.62;0.00;0.00;0.62;1.50;0.80;;;20.90;23.80;;;;;;2250664;61;20909;-70
2023/01/22 00:08:26;0.00;0.00;0.62;0.00;0.00;0.62;1.80;0.90;;;20.90;23.80;;;;;;2250755;61;20770;-68
2023/01/22 00:11:11;0.00;0.00;0.62;0.00;0.00;0.62;1.53;0.80;;;20.90;23.70;;;;;;2248424;61;20916;-68
2023/01/22 00:13:56;0.00;0.00;0.62;0.00;0.00;0.62;1.60;0.80;;;20.90;23.70;;;;;;2254688;61;20433;-67
2023/01/22 00:16:43;0.00;0.00;0.62;0.00;0.00;0.62;1.50;0.87;;;20.90;23.80;;;;;;2254282;61;20358;-68
2023/01/22 00:19:28;0.00;0.00;0.62;0.00;0.00;0.62;1.43;0.80;;;20.90;23.80;;;;;;2255201;61;20478;-67
2023/01/22 00:22:13;0.00;0.00;0.62;0.00;0.00;0.62;1.50;0.83;;;20.90;23.80;;;;;;2253921;61;20478;-68
2023/01/22 00:24:57;0.00;0.00;0.62;0.00;0.00;0.62;1.40;0.70;;;20.90;23.80;;;;;;2254448;61;20568;-69
2023/01/22 00:27:42;0.00;0.00;0.62;0.00;0.00;0.62;1.30;0.70;;;20.90;23.80;;;;;;2254438;61;20416;-69
2023/01/22 00:30:27;0.00;0.00;0.62;0.00;0.00;0.62;1.30;0.70;;;20.90;23.80;;;;;;2254545;61;20453;-67
2023/01/22 00:33:13;0.00;0.00;0.62;0.00;0.00;0.62;1.73;0.80;;;20.90;23.80;;;;;;2254268;61;20816;-68
2023/01/22 00:36:05;0.00;0.00;0.62;0.00;0.00;0.62;1.40;0.70;;;20.90;23.80;;;;;;2254534;61;20401;-67
2023/01/22 00:38:50;0.00;0.00;0.62;0.00;0.00;0.62;1.53;0.70;;;20.90;23.80;;;;;;2254608;61;20934;-68
2023/01/22 00:41:35;0.00;0.00;0.62;0.00;0.00;0.62;1.27;0.63;;;20.90;23.80;;;;;;2277347;58;20365;-67
2023/01/22 00:44:20;0.00;0.00;0.62;0.00;0.00;0.62;1.60;0.90;;;20.90;23.80;;;;;;2254497;61;20389;-67
2023/01/22 00:47:04;0.00;0.00;0.62;0.00;0.00;0.62;1.30;0.70;;;20.90;24.30;;;;;;2253464;61;20419;-69
2023/01/22 00:49:50;0.00;0.00;0.62;0.00;0.00;0.62;1.37;0.70;;;20.90;23.80;;;;;;2251888;61;20409;-68
2023/01/22 00:52:36;0.00;0.00;0.62;0.00;0.00;0.62;1.20;0.60;;;20.90;23.80;;;;;;2255042;61;20366;-67
2023/01/22 00:55:21;0.00;0.00;0.62;0.00;0.00;0.62;1.43;0.90;;;20.90;23.80;;;;;;2253732;61;20425;-64
2023/01/22 00:58:06;0.00;0.00;0.62;0.00;0.00;0.62;1.60;0.90;;;20.90;23.80;;;;;;2254490;61;20366;-63
2023/01/22 01:00:52;0.00;0.00;0.62;0.00;0.00;0.62;1.40;0.87;;;20.90;23.80;;;;;;2254845;61;20369;-67
2023/01/22 01:03:37;0.00;0.00;0.62;0.00;0.00;0.62;1.60;0.90;;;20.90;23.80;;;;;;2254727;61;20449;-65
2023/01/22 01:06:23;0.00;0.00;0.62;0.00;0.00;0.62;1.93;0.87;;;20.90;23.80;;;;;;2255055;61;20979;-65
2023/01/22 01:09:08;0.00;0.00;0.62;0.00;0.00;0.62;1.50;0.70;;;20.90;23.80;;;;;;2254556;61;20374;-64
2023/01/22 01:11:53;0.00;0.00;0.62;0.00;0.00;0.62;1.47;0.80;;;20.90;23.80;;;;;;2250772;61;20390;-67
2023/01/22 01:14:38;0.00;0.00;0.62;0.00;0.00;0.62;1.60;0.80;;;20.90;23.70;;;;;;2251786;61;20444;-67
2023/01/22 01:17:23;0.00;0.00;0.62;0.00;0.00;0.62;1.80;1.00;;;20.90;23.70;;;;;;2250599;61;20370;-67
2023/01/22 01:20:09;0.00;0.00;0.62;0.00;0.00;0.62;2.17;1.20;;;20.90;23.70;;;;;;2250650;61;20402;-66
2023/01/22 01:22:56;0.00;0.00;0.62;0.00;0.00;0.62;2.27;1.17;;;20.90;23.70;;;;;;2251553;61;20497;-66
2023/01/22 01:25:41;0.00;0.00;0.62;0.00;0.00;0.62;1.90;1.17;;;20.90;23.70;;;;;;2251411;61;20950;-66
2023/01/22 01:28:27;0.00;0.00;0.62;0.00;0.00;0.62;2.10;1.33;;;20.90;23.50;;;;;;2250855;61;20900;-65
2023/01/22 01:31:14;0.00;0.00;0.62;0.00;0.00;0.62;1.70;1.00;;;20.90;23.40;;;;;;2250365;61;20458;-65
2023/01/22 01:33:59;0.00;0.00;0.62;0.00;0.00;0.62;3.10;1.63;;;20.90;23.40;;;;;;2251434;61;20373;-65
2023/01/22 01:36:45;0.00;0.00;0.62;0.00;0.00;0.62;1.80;1.30;;;20.80;23.30;;;;;;2250872;61;20378;-65
2023/01/22 01:39:31;0.00;0.00;0.62;0.00;0.00;0.62;2.70;1.63;;;20.80;23.20;;;;;;2250579;61;20486;-65
2023/01/22 01:42:23;0.00;0.00;0.62;0.00;0.00;0.62;1.53;1.30;;;20.80;23.20;;;;;;2251124;61;20699;-66
2023/01/22 01:45:25;0.00;0.00;0.62;0.00;0.00;0.62;1.77;1.30;;;20.80;23.20;;;;;;2251138;61;20479;-66
2023/01/22 01:48:21;0.00;0.00;0.62;0.00;0.00;0.62;1.50;1.00;;;20.80;23.20;;;;;;2250650;61;20393;-65
2023/01/22 01:51:11;0.00;0.00;0.62;0.00;0.00;0.62;2.13;1.50;;;20.80;23.20;;;;;;2251440;61;20814;-66
2023/01/22 01:53:58;0.00;0.00;0.62;0.00;0.00;0.62;2.40;1.20;;;20.80;23.10;;;;;;2250726;61;20809;-66
2023/01/22 01:56:49;0.00;0.00;0.62;0.00;0.00;0.62;1.87;1.53;;;20.80;23.10;;;;;;2250964;61;20431;-66
2023/01/22 01:59:35;0.00;0.00;0.62;0.00;0.00;0.62;1.83;1.33;;;20.80;23.00;;;;;;2251326;61;20466;-66
2023/01/22 02:02:20;0.00;0.00;0.62;0.00;0.00;0.62;2.40;1.50;;;20.80;23.00;;;;;;2250847;61;20764;-65
2023/01/22 02:05:08;0.00;0.00;0.62;0.00;0.00;0.62;2.03;1.37;;;20.70;22.90;;;;;;2251191;61;20386;-67
2023/01/22 02:07:53;0.00;0.00;0.62;0.00;0.00;0.62;1.90;1.40;;;20.70;22.90;;;;;;2250051;61;20386;-65
2023/01/22 02:10:38;0.00;0.00;0.62;0.00;0.00;0.62;1.87;1.33;;;20.70;22.90;;;;;;2250792;61;20427;-65
2023/01/22 02:13:28;0.00;0.00;0.62;0.00;0.00;0.62;2.10;1.53;;;20.70;22.90;;;;;;2637197;45;20358;-66
2023/01/22 02:16:13;0.00;0.00;0.62;0.00;0.00;0.62;1.60;1.27;;;20.70;22.90;;;;;;2254022;61;20454;-66
2023/01/22 02:18:57;0.00;0.00;0.62;0.00;0.00;0.62;1.83;1.20;;;20.70;22.90;;;;;;2255088;61;20398;-66
2023/01/22 02:21:44;0.00;0.00;0.62;0.00;0.00;0.62;1.90;1.20;;;20.60;22.80;;;;;;2255547;61;20765;-66
2023/01/22 02:24:30;0.00;0.00;0.62;0.00;0.00;0.62;2.70;1.60;;;20.60;23.40;;;;;;2254206;61;20429;-66
2023/01/22 02:27:15;0.00;0.00;0.62;0.00;0.00;0.62;1.90;1.30;;;20.60;22.80;;;;;;2254677;61;20389;-66
2023/01/22 02:30:00;0.00;0.00;0.62;0.00;0.00;0.62;1.80;1.23;;;20.60;22.80;;;;;;2255022;61;20366;-66
2023/01/22 02:32:46;0.00;0.00;0.62;0.00;0.00;0.62;1.77;1.30;;;20.60;22.80;;;;;;2254890;61;20432;-66
2023/01/22 02:35:32;0.00;0.00;0.62;0.00;0.00;0.62;1.90;1.10;;;20.60;22.80;;;;;;2254523;61;20389;-66
2023/01/22 02:38:17;0.00;0.00;0.62;0.00;0.00;0.62;2.00;1.40;;;20.60;22.80;;;;;;2254293;61;20370;-65
2023/01/22 02:41:02;0.00;0.00;0.62;0.00;0.00;0.62;1.63;1.27;;;20.50;22.70;;;;;;2254848;61;20520;-65
2023/01/22 02:43:48;0.00;0.00;0.62;0.00;0.00;0.62;1.90;1.43;;;20.50;22.70;;;;;;2255136;61;20417;-64
2023/01/22 02:46:36;0.00;0.00;0.62;0.00;0.00;0.62;2.50;1.50;;;20.50;22.70;;;;;;2254440;61;20366;-64
2023/01/22 02:49:22;0.00;0.00;0.62;0.00;0.00;0.62;1.87;1.50;;;20.50;22.70;;;;;;2252294;61;20366;-65
2023/01/22 02:52:08;0.00;0.00;0.62;0.00;0.00;0.62;2.97;1.13;;;20.50;22.60;;;;;;2254833;61;20475;-65
2023/01/22 02:55:04;0.00;0.00;0.62;0.00;0.00;0.62;2.20;1.23;;;20.40;22.50;;;;;;2257783;61;20447;-65
2023/01/22 02:57:49;0.00;0.00;0.62;0.00;0.00;0.62;1.70;1.10;;;20.40;22.50;;;;;;2255132;61;20956;-65
2023/01/22 03:00:34;0.00;0.00;0.62;0.00;0.00;0.62;1.90;1.33;;;20.40;22.50;;;;;;2254780;61;20809;-64
2023/01/22 03:03:19;0.00;0.00;0.62;0.00;0.00;0.62;2.27;1.30;;;20.40;22.50;;;;;;2254776;61;20492;-65
2023/01/22 03:06:05;0.00;0.00;0.62;0.00;0.00;0.62;2.33;1.20;;;20.40;22.50;;;;;;2255775;61;20440;-64
2023/01/22 03:08:52;0.00;0.00;0.62;0.00;0.00;0.62;2.30;1.40;;;20.40;22.50;;;;;;2254822;61;20455;-66
2023/01/22 03:11:41;0.00;0.00;0.62;0.00;0.00;0.62;1.97;1.30;;;20.40;22.40;;;;;;2250235;61;20427;-64
2023/01/22 03:23:43;0.00;0.00;0.62;0.00;0.00;0.62;1.90;1.20;;;20.30;22.30;;;;;;2246751;61;20959;-64
2023/01/22 03:26:30;0.00;0.00;0.62;0.00;0.00;0.62;1.70;1.20;;;20.20;22.20;;;;;;2249298;61;20371;-65
2023/01/22 03:29:17;0.00;0.00;0.62;0.00;0.00;0.62;1.70;1.20;;;20.30;22.30;;;;;;2249748;61;20400;-64
2023/01/22 03:32:02;0.00;0.00;0.62;0.00;0.00;0.62;2.83;1.30;;;20.30;22.30;;;;;;2246961;61;20892;-64
2023/01/22 03:34:46;0.00;0.00;0.62;0.00;0.00;0.62;1.60;1.13;;;20.20;22.30;;;;;;2246418;61;20434;-64
2023/01/22 03:37:32;0.00;0.00;0.62;0.00;0.00;0.62;1.90;1.47;;;20.20;22.30;;;;;;2245963;61;20371;-63
2023/01/22 03:40:18;0.00;0.00;0.62;0.00;0.00;0.62;1.53;1.13;;;20.20;22.20;;;;;;2247086;61;20395;-64
2023/01/22 03:43:03;0.00;0.00;0.62;0.00;0.00;0.62;2.60;1.67;;;20.20;22.30;;;;;;2247216;61;20376;-64
2023/01/22 03:45:49;0.00;0.00;0.62;0.00;0.00;0.62;1.80;1.20;;;20.20;22.20;;;;;;2246857;61;20524;-65
2023/01/22 03:48:38;0.00;0.00;0.62;0.00;0.00;0.62;1.60;1.20;;;20.10;22.20;;;;;;2246737;61;20416;-64
2023/01/22 03:51:23;0.00;0.00;0.62;0.00;0.00;0.62;1.80;1.10;;;20.10;22.20;;;;;;2246916;61;20786;-64
2023/01/22 03:54:11;0.00;0.00;0.62;0.00;0.00;0.62;1.90;1.37;;;20.10;22.20;;;;;;2247001;61;21073;-64
2023/01/22 03:56:56;0.00;0.00;0.62;0.00;0.00;0.62;1.83;1.23;;;20.10;22.20;;;;;;2246836;61;20415;-64
2023/01/22 03:59:46;0.00;0.00;0.62;0.00;0.00;0.62;2.57;1.80;;;20.10;22.10;;;;;;2246336;61;20442;-67
2023/01/22 04:02:33;0.00;0.00;0.62;0.00;0.00;0.62;1.60;1.13;;;20.10;22.20;;;;;;2246593;61;20395;-68
2023/01/22 04:05:29;0.00;0.00;0.62;0.00;0.00;0.62;1.60;1.00;;;20.10;22.20;;;;;;2247395;61;21026;-65
2023/01/22 04:08:14;0.00;0.00;0.62;0.00;0.00;0.62;1.70;1.00;;;20.10;22.10;;;;;;2245876;61;20368;-64
2023/01/22 04:11:02;0.00;0.00;0.62;0.00;0.00;0.62;1.70;1.03;;;20.10;22.10;;;;;;2246590;61;20372;-64
2023/01/22 04:13:47;0.00;0.00;0.62;0.00;0.00;0.62;1.60;1.10;;;20.00;22.00;;;;;;2246565;61;20371;-64
2023/01/22 04:16:35;0.00;0.00;0.62;0.00;0.00;0.62;3.50;1.33;;;20.00;22.10;;;;;;2246458;61;20348;-65
2023/01/22 04:19:24;0.00;0.00;0.62;0.00;0.00;0.62;1.63;1.20;;;20.00;22.10;;;;;;2247063;61;20379;-65
2023/01/22 04:22:22;0.00;0.00;0.62;0.00;0.00;0.62;1.60;1.10;;;20.00;22.00;;;;;;2246176;61;20423;-64
2023/01/22 04:25:08;0.00;0.00;0.62;0.00;0.00;0.62;1.50;0.90;;;20.00;22.00;;;;;;2246462;61;20936;-64
2023/01/22 04:27:53;0.00;0.00;0.62;0.00;0.00;0.62;1.47;0.90;;;20.00;22.10;;;;;;2246287;61;20372;-65
2023/01/22 04:30:40;0.00;0.00;0.62;0.00;0.00;0.62;1.60;0.90;;;20.00;22.10;;;;;;2246402;61;20411;-64
2023/01/22 04:33:43;0.00;0.00;0.62;0.00;0.00;0.62;1.60;1.10;;;20.00;22.10;;;;;;2246383;61;20408;-65
2023/01/22 04:36:34;0.00;0.00;0.62;0.00;0.00;0.62;1.40;1.00;;;19.90;22.00;;;;;;2245736;61;20445;-65
2023/01/22 04:39:19;0.00;0.00;0.62;0.00;0.00;0.62;1.40;0.97;;;19.90;22.00;;;;;;2246547;61;20395;-65
2023/01/22 04:42:03;0.00;0.00;0.62;0.00;0.00;0.62;1.57;1.00;;;19.90;22.00;;;;;;2246995;61;20466;-65
2023/01/22 04:44:49;0.00;0.00;0.62;0.00;0.00;0.62;1.90;1.30;;;19.90;22.00;;;;;;2248499;61;20786;-65
2023/01/22 04:47:39;0.00;0.00;0.62;0.00;0.00;0.62;2.00;1.20;;;19.80;21.90;;;;;;2246027;61;20375;-64
2023/01/22 04:50:27;0.00;0.00;0.62;0.00;0.00;0.62;1.83;1.10;;;19.90;22.00;;;;;;2246400;61;20364;-65
2023/01/22 04:53:14;0.00;0.00;0.62;0.00;0.00;0.62;1.50;1.07;;;19.80;22.00;;;;;;2248842;61;20446;-65
2023/01/22 04:55:59;0.00;0.00;0.62;0.00;0.00;0.62;1.40;1.00;;;19.80;21.90;;;;;;2246404;61;20395;-64
2023/01/22 04:58:44;0.00;0.00;0.62;0.00;0.00;0.62;2.10;1.10;;;19.80;22.00;;;;;;2245682;61;20391;-65
2023/01/22 05:01:29;0.00;0.00;0.62;0.00;0.00;0.62;1.70;1.20;;;19.80;22.00;;;;;;2246669;61;20362;-64
2023/01/22 05:04:14;0.00;0.00;0.62;0.00;0.00;0.62;1.90;1.20;;;19.80;21.90;;;;;;2246851;61;20395;-65
2023/01/22 05:06:59;0.00;0.00;0.62;0.00;0.00;0.62;1.50;1.00;;;19.80;22.00;;;;;;2245854;61;20439;-64
2023/01/22 05:09:45;0.00;0.00;0.62;0.00;0.00;0.62;2.03;1.00;;;19.80;22.00;;;;;;2246375;61;21204;-64
2023/01/22 05:12:30;0.00;0.00;0.62;0.00;0.00;0.62;1.80;1.20;;;19.70;21.90;;;;;;2260882;61;20899;-64
2023/01/22 05:15:15;0.00;0.00;0.62;0.00;0.00;0.62;1.40;0.80;;;19.80;22.00;;;;;;2250074;61;20437;-64
2023/01/22 05:18:01;0.00;0.00;0.62;0.00;0.00;0.62;1.37;0.90;;;19.70;21.90;;;;;;2250087;61;20850;-64
2023/01/22 05:20:46;0.00;0.00;0.62;0.00;0.00;0.62;1.60;1.10;;;19.70;21.90;;;;;;2249711;61;20905;-64
2023/01/22 05:23:31;0.00;0.00;0.62;0.00;0.00;0.62;1.60;1.07;;;19.70;21.90;;;;;;2250506;61;20362;-64
2023/01/22 05:26:17;0.00;0.00;0.62;0.00;0.00;0.62;1.80;1.23;;;19.70;21.90;;;;;;2250289;61;20425;-64
2023/01/22 05:29:16;0.00;0.00;0.62;0.00;0.00;0.62;1.30;1.00;;;19.70;22.00;;;;;;2249652;61;20811;-64
2023/01/22 05:32:15;0.00;0.00;0.62;0.00;0.00;0.62;1.47;1.00;;;19.70;22.00;;;;;;2250561;61;20410;-64
2023/01/22 05:35:07;0.00;0.00;0.62;0.00;0.00;0.62;1.60;1.00;;;19.70;22.00;;;;;;2249983;61;21199;-64
2023/01/22 05:37:55;0.00;0.00;0.62;0.00;0.00;0.62;1.80;1.10;;;19.70;22.00;;;;;;2253038;61;20412;-63
2023/01/22 05:40:41;0.00;0.00;0.62;0.00;0.00;0.62;1.50;1.00;;;19.70;22.00;;;;;;2250145;61;20997;-65
2023/01/22 05:43:27;0.00;0.00;0.62;0.00;0.00;0.62;1.73;1.23;;;19.60;22.00;;;;;;2249866;61;20374;-65
2023/01/22 05:46:00;0.00;0.00;0.62;0.00;0.00;0.62;1.50;1.07;;;19.60;21.90;;;;;;2250349;61;20780;-64
2023/01/22 05:48:57;0.00;0.00;0.62;0.00;0.00;0.62;1.77;1.10;;;19.60;21.90;;;;;;2237759;61;20362;-65
2023/01/22 05:51:35;0.00;0.00;0.62;0.00;0.00;0.62;1.77;1.20;;;19.60;21.90;;;;;;2233713;61;20382;-64
2023/01/22 05:54:12;0.00;0.00;0.62;0.00;0.00;0.62;1.53;1.00;;;19.60;22.00;;;;;;2237298;61;20545;-66
2023/01/22 05:56:59;0.00;0.00;0.62;0.00;0.00;0.62;2.10;1.00;;;19.60;22.20;;;;;;2237065;61;20368;-67
2023/01/22 05:59:46;0.00;0.00;0.62;0.00;0.00;0.62;1.40;0.87;;;19.60;22.20;;;;;;2240284;61;20413;-65
2023/01/22 06:02:32;0.00;0.00;0.62;0.00;0.00;0.62;1.30;0.80;;;19.60;22.30;;;;;;2250739;61;20832;-65
2023/01/22 06:05:17;0.00;0.00;0.62;0.00;0.00;0.62;1.67;0.80;;;19.60;22.30;;;;;;2250609;61;20962;-67
2023/01/22 06:08:06;0.00;0.00;0.62;0.00;0.00;0.62;1.40;1.00;;;19.60;22.40;;;;;;2250981;61;20793;-67
2023/01/22 06:10:59;0.00;0.00;0.62;0.00;0.00;0.62;1.53;0.90;;;19.60;22.40;;;;;;2250087;61;20374;-65
2023/01/22 06:13:46;0.00;0.00;0.62;0.00;0.00;0.62;1.40;0.90;;;19.60;22.40;;;;;;2250025;61;20907;-66
2023/01/22 06:16:38;0.00;0.00;0.62;0.00;0.00;0.62;1.50;0.90;;;19.60;22.40;;;;;;2250579;61;20414;-65
2023/01/22 06:19:27;0.00;0.00;0.62;0.00;0.00;0.62;1.30;0.70;;;19.60;22.50;;;;;;2250795;61;20837;-65
2023/01/22 06:22:13;0.00;0.00;0.62;0.00;0.00;0.62;1.60;0.90;;;19.60;22.50;;;;;;2251014;61;20370;-66
2023/01/22 06:25:11;0.00;0.00;0.62;0.00;0.00;0.62;1.30;0.70;;;19.60;22.50;;;;;;2250937;61;20402;-66
2023/01/22 06:28:16;0.00;0.00;0.62;0.00;0.00;0.62;1.47;0.70;;;19.50;22.40;;;;;;2250088;61;20758;-67
2023/01/22 06:31:06;0.00;0.00;0.62;0.00;0.00;0.62;1.40;0.80;;;19.60;22.50;;;;;;2251159;61;20891;-66
2023/01/22 06:33:53;0.00;0.00;0.62;0.00;0.00;0.62;1.40;0.70;;;19.60;22.50;;;;;;2251256;61;20907;-67
2023/01/22 06:36:38;0.00;0.00;0.62;0.00;0.00;0.62;1.60;0.93;;;19.60;22.50;;;;;;2250232;61;20410;-67
2023/01/22 06:39:24;0.00;0.00;0.62;0.00;0.00;0.62;1.73;0.90;;;19.60;22.50;;;;;;2250903;61;20463;-67
2023/01/22 06:42:18;0.00;0.00;0.62;0.00;0.00;0.62;1.67;0.70;;;19.60;22.50;;;;;;2249947;61;20409;-69
2023/01/22 06:45:04;0.00;0.00;0.62;0.00;0.00;0.62;1.50;0.83;;;19.60;22.50;;;;;;2252169;61;20841;-69
2023/01/22 06:47:49;0.00;0.00;0.62;0.00;0.00;0.62;1.50;0.87;;;19.60;22.60;;;;;;2251729;61;20379;-69
2023/01/22 06:50:36;0.00;0.00;0.62;0.00;0.00;0.62;1.30;0.80;;;19.60;22.60;;;;;;2251407;61;20366;-69
2023/01/22 06:53:21;0.00;0.00;0.62;0.00;0.00;0.62;1.80;1.00;;;19.60;22.60;;;;;;2251894;61;20403;-69
2023/01/22 06:56:07;0.00;0.00;0.62;0.00;0.00;0.62;2.40;0.80;;;19.60;22.60;;;;;;2251785;61;20382;-69
2023/01/22 06:58:51;0.00;0.00;0.62;0.00;0.00;0.62;1.30;0.70;;;19.60;22.60;;;;;;2251441;61;20398;-69
2023/01/22 07:01:36;0.00;0.00;0.62;0.00;0.00;0.62;1.70;0.90;;;19.60;22.60;;;;;;2252191;61;20382;-69
2023/01/22 07:04:21;0.00;0.00;0.62;0.00;0.00;0.62;1.40;0.80;;;19.60;22.60;;;;;;2251616;61;20382;-69
2023/01/22 07:07:08;0.00;0.00;0.62;0.00;0.00;0.62;1.50;0.80;;;19.60;22.60;;;;;;2252135;61;20579;-69
2023/01/22 07:09:52;0.00;0.00;0.62;0.00;0.00;0.62;1.40;0.70;;;19.60;22.60;;;;;;2252350;61;20876;-69
2023/01/22 07:12:37;0.00;0.00;0.62;0.00;0.00;0.62;1.50;0.73;;;19.60;22.60;;;;;;2314511;58;20362;-69
2023/01/22 07:15:21;0.00;0.00;0.62;0.00;0.00;0.62;1.50;0.70;;;19.60;22.60;;;;;;2252110;61;20481;-69
2023/01/22 07:18:06;0.00;0.00;0.62;0.00;0.00;0.62;1.60;0.80;;;19.60;22.60;;;;;;2252180;61;20355;-69
2023/01/22 07:20:51;0.00;0.00;0.62;0.00;0.00;0.62;1.93;0.93;;;19.70;22.70;;;;;;2251463;61;20397;-69
2023/01/22 07:23:37;0.00;0.00;0.62;0.00;0.00;0.62;1.70;0.70;;;19.70;22.60;;;;;;2252257;61;20370;-69
2023/01/22 07:26:22;0.00;0.00;0.62;0.00;0.00;0.62;1.30;0.80;;;19.70;22.60;;;;;;2251903;61;20401;-69
2023/01/22 07:29:07;0.00;0.00;0.62;0.00;0.00;0.62;1.63;0.80;;;19.70;22.60;;;;;;2251677;61;20382;-68
2023/01/22 07:31:51;0.00;0.00;0.62;0.00;0.00;0.62;1.40;0.70;;;19.60;22.50;;;;;;2252260;61;20926;-69
2023/01/22 07:34:36;0.00;0.00;0.62;0.00;0.00;0.62;1.20;0.60;;;19.60;22.50;;;;;;2251436;61;20426;-68
2023/01/22 07:37:21;0.00;0.00;0.62;0.00;0.00;0.62;1.40;0.70;;;19.60;22.50;;;;;;2251649;61;20382;-69
2023/01/22 07:40:08;0.00;0.00;0.62;0.00;0.00;0.62;1.40;0.63;;;19.70;22.60;;;;;;2251908;61;20942;-69
2023/01/22 07:42:54;0.00;0.00;0.62;0.00;0.00;0.62;1.90;0.73;;;19.70;22.60;;;;;;2251601;61;20479;-69
2023/01/22 07:45:41;0.00;0.00;0.62;0.00;0.00;0.62;2.20;0.80;;;19.70;22.60;;;;;;2251719;61;20486;-68
2023/01/22 07:48:25;0.00;0.00;0.62;0.00;0.00;0.62;1.57;0.70;;;19.70;22.60;;;;;;2251808;61;20877;-69
2023/01/22 07:51:11;0.00;0.00;0.62;0.00;0.00;0.62;1.30;0.70;;;19.70;22.60;;;;;;2251961;61;20454;-68
2023/01/22 07:53:56;0.00;0.00;0.62;0.00;0.00;0.62;2.50;1.00;;;19.70;22.60;;;;;;2251968;61;20375;-69
2023/01/22 07:56:42;0.00;0.00;0.62;0.00;0.00;0.62;1.20;0.60;;;19.70;22.60;;;;;;2251398;61;20386;-69
2023/01/22 07:59:27;0.00;0.00;0.62;0.00;0.00;0.62;1.37;0.73;;;19.70;22.60;;;;;;2252173;61;20483;-69
2023/01/22 08:02:12;0.00;0.00;0.62;0.00;0.00;0.62;2.03;0.90;;;19.70;22.60;;;;;;2251754;61;20795;-69
2023/01/22 08:04:57;0.00;0.00;0.62;0.00;0.00;0.62;1.20;0.70;;;19.70;22.60;;;;;;2251329;61;20418;-69
2023/01/22 08:07:42;0.00;0.00;0.62;0.00;0.00;0.62;1.33;0.70;;;19.70;22.60;;;;;;2251943;61;20835;-69
2023/01/22 08:10:26;0.00;0.00;0.62;0.00;0.00;0.62;1.30;0.80;;;19.70;22.60;;;;;;2251041;61;20407;-68
2023/01/22 08:13:12;0.00;0.00;0.62;0.00;0.00;0.62;1.40;0.70;;;19.70;22.60;;;;;;2248139;61;20360;-69
2023/01/22 08:15:57;0.00;0.00;0.62;0.00;0.00;0.62;1.30;0.70;;;19.70;22.60;;;;;;2248094;61;20391;-68
2023/01/22 08:18:42;0.00;0.00;0.62;0.00;0.00;0.62;1.30;0.63;;;19.70;22.60;;;;;;2247339;61;20355;-69
2023/01/22 08:21:26;0.00;0.00;0.62;0.00;0.00;0.62;1.30;0.70;;;19.70;22.60;;;;;;2247626;61;20364;-69
2023/01/22 08:24:12;0.00;0.00;0.62;0.00;0.00;0.62;1.30;0.60;;;19.70;22.60;;;;;;2248005;61;20569;-69
2023/01/22 08:26:57;0.00;0.00;0.62;0.00;0.00;0.62;1.20;0.70;;;19.70;22.60;;;;;;2247686;61;20367;-69
2023/01/22 08:29:43;0.00;0.00;0.62;0.00;0.00;0.62;1.33;0.67;;;19.70;22.60;;;;;;2248305;61;20348;-69
2023/01/22 08:32:27;0.00;0.00;0.62;0.00;0.00;0.62;1.20;0.60;;;19.70;22.60;;;;;;2247398;61;20439;-69
2023/01/22 08:35:13;0.00;0.00;0.62;0.00;0.00;0.62;1.30;0.70;;;19.70;22.60;;;;;;2247942;61;20415;-69
2023/01/22 08:37:58;0.00;0.00;0.62;0.00;0.00;0.62;1.50;0.70;;;19.70;22.60;;;;;;2247726;61;20348;-69
2023/01/22 08:40:46;0.00;0.00;0.62;0.00;0.00;0.62;1.27;0.63;;;19.70;22.60;;;;;;2247904;61;20395;-68
2023/01/22 08:43:31;0.00;0.00;0.62;0.00;0.00;0.62;1.40;0.77;;;19.70;22.60;;;;;;2248234;61;20374;-69
2023/01/22 08:46:17;0.00;0.00;0.62;0.00;0.00;0.62;1.60;0.70;;;19.70;22.60;;;;;;2248253;61;20771;-68
2023/01/22 08:49:02;0.00;0.00;0.62;0.00;0.00;0.62;1.27;0.70;;;19.70;22.60;;;;;;2247013;61;20375;-69
2023/01/22 08:51:49;0.00;0.00;0.62;0.00;0.00;0.62;1.60;0.70;;;19.70;22.60;;;;;;2248258;61;20767;-69
2023/01/22 08:54:34;0.00;0.00;0.62;0.00;0.00;0.62;1.50;0.73;;;19.70;22.60;;;;;;2248087;61;20391;-68
2023/01/22 08:57:18;0.00;0.00;0.62;0.00;0.00;0.62;1.20;0.70;;;19.70;22.60;;;;;;2247826;61;20861;-68
2023/01/22 09:00:05;0.00;0.00;0.62;0.00;0.00;0.62;1.70;0.60;;;19.70;22.60;;;;;;2248210;61;20939;-69
2023/01/22 09:02:55;0.00;0.00;0.62;0.00;0.00;0.62;1.33;0.70;;;19.70;22.60;;;;;;2247834;61;21282;-69
2023/01/22 09:05:40;0.00;0.00;0.62;0.00;0.00;0.62;1.20;0.70;;;19.70;22.60;;;;;;2248027;61;20391;-68
2023/01/22 09:08:24;0.00;0.00;0.62;0.00;0.00;0.62;1.20;0.60;;;19.70;22.60;;;;;;2248210;61;20411;-68
2023/01/22 09:11:09;0.00;0.00;0.62;0.00;0.00;0.62;1.30;0.70;;;19.70;22.60;;;;;;2248940;61;20358;-69
2023/01/22 09:13:55;0.00;0.00;0.62;0.00;0.00;0.62;2.37;0.77;;;19.70;22.60;;;;;;2683715;45;20828;-68
2023/01/22 09:16:40;0.00;0.00;0.62;0.00;0.00;0.62;1.20;0.60;;;19.70;22.60;;;;;;2255559;61;20409;-68
2023/01/22 09:19:26;0.00;0.00;0.62;0.00;0.00;0.62;1.20;0.70;;;19.70;22.60;;;;;;2255049;61;20439;-68
2023/01/22 09:22:10;0.00;0.00;0.62;0.00;0.00;0.62;1.20;0.60;;;19.70;22.60;;;;;;2254864;61;20385;-70
2023/01/22 09:24:55;0.00;0.00;0.62;0.00;0.00;0.62;1.20;0.70;;;19.70;22.60;;;;;;2254030;61;20389;-69
2023/01/22 09:27:42;0.00;0.00;0.62;0.00;0.00;0.62;1.20;0.70;;;19.70;22.60;;;;;;2255129;61;20366;-69
2023/01/22 09:30:28;0.00;0.00;0.62;0.00;0.00;0.62;1.20;0.60;;;19.70;22.60;;;;;;2255145;61;20925;-69
2023/01/22 09:33:14;0.00;0.00;0.62;0.00;0.00;0.62;1.40;0.73;;;19.70;22.60;;;;;;2254594;61;20440;-72
2023/01/22 09:36:09;0.00;0.00;0.62;0.00;0.00;0.62;1.20;0.60;;;19.70;22.60;;;;;;2255988;61;20409;-68
2023/01/22 09:38:55;0.00;0.00;0.62;0.00;0.00;0.62;1.20;0.70;;;19.70;22.60;;;;;;2255744;61;20377;-68
2023/01/22 09:41:45;0.00;0.00;0.62;0.00;0.00;0.62;1.20;0.60;;;19.70;22.60;;;;;;2255654;61;20436;-68
2023/01/22 09:44:36;0.00;0.00;0.62;0.00;0.00;0.62;1.30;0.60;;;19.70;22.60;;;;;;2255317;61;20382;-69
2023/01/22 09:47:31;0.00;0.00;0.62;0.00;0.00;0.62;1.30;0.70;;;19.80;22.70;;;;;;2254231;61;20397;-70
2023/01/22 09:50:20;0.00;0.00;0.62;0.00;0.00;0.62;1.20;0.60;;;19.80;22.70;;;;;;2255235;61;20500;-69
2023/01/22 09:53:14;0.00;0.00;0.62;0.00;0.00;0.62;1.30;0.60;;;19.70;22.60;;;;;;2255839;61;20378;-68
2023/01/22 09:56:00;0.00;0.00;0.62;0.00;0.00;0.62;1.47;0.70;;;19.80;22.70;;;;;;2254973;61;20397;-69
2023/01/22 09:58:47;0.00;0.00;0.62;0.00;0.00;0.62;1.30;0.60;;;19.70;22.60;;;;;;2255101;61;20361;-71
2023/01/22 10:01:34;0.00;0.00;0.62;0.00;0.00;0.62;1.30;0.77;;;19.80;22.70;;;;;;2255305;61;20374;-69
2023/01/22 10:04:32;0.00;0.00;0.62;0.00;0.00;0.62;1.20;0.60;;;19.80;22.70;;;;;;2255690;61;20393;-69
2023/01/22 10:07:23;0.00;0.00;0.62;0.00;0.00;0.62;1.20;0.60;;;19.80;22.70;;;;;;2255256;61;20382;-69
2023/01/22 10:10:19;0.00;0.00;0.62;0.00;0.00;0.62;1.30;0.60;;;19.80;22.70;;;;;;2254087;61;20417;-69
2023/01/22 10:13:16;0.00;0.00;0.62;0.00;0.00;0.62;1.30;0.67;;;19.80;22.70;;;;;;2246795;61;20371;-69
2023/01/22 10:16:02;0.00;0.00;0.62;0.00;0.00;0.62;1.33;0.70;;;19.80;22.70;;;;;;2247291;61;20833;-69
2023/01/22 10:18:52;0.00;0.00;0.62;0.00;0.00;0.62;1.20;0.60;;;19.80;22.70;;;;;;2247633;61;20956;-69
2023/01/22 10:21:43;0.00;0.00;0.62;0.00;0.00;0.62;1.20;0.60;;;19.80;22.70;;;;;;2247552;61;20414;-69
2023/01/22 10:24:29;0.00;0.00;0.62;0.00;0.00;0.62;1.30;0.60;;;19.80;22.70;;;;;;2246603;61;20434;-69
2023/01/22 10:27:19;0.00;0.00;0.62;0.00;0.00;0.62;1.20;0.60;;;19.80;22.70;;;;;;2247343;61;20420;-69
2023/01/22 10:30:17;0.00;0.00;0.62;0.00;0.00;0.62;1.30;0.70;;;19.80;22.70;;;;;;2247743;61;20369;-69
2023/01/22 10:33:05;0.00;0.00;0.62;0.00;0.00;0.62;1.40;0.70;;;19.80;22.70;;;;;;2246900;61;20423;-69
2023/01/22 10:35:52;0.00;0.00;0.62;0.00;0.00;0.62;1.20;0.60;;;19.80;22.70;;;;;;2246950;61;20399;-69
2023/01/22 10:38:40;0.00;0.00;0.62;0.00;0.00;0.62;1.30;0.70;;;19.80;22.70;;;;;;2246985;61;20814;-69
2023/01/22 10:41:28;0.00;0.00;0.62;0.00;0.00;0.62;1.20;0.60;;;19.80;22.70;;;;;;2247472;61;20398;-69
2023/01/22 10:44:21;0.00;0.00;0.62;0.00;0.00;0.62;1.20;0.60;;;19.80;22.70;;;;;;2247323;61;20431;-69
2023/01/22 10:47:17;0.00;0.00;0.62;0.00;0.00;0.62;1.30;0.60;;;19.80;22.70;;;;;;2246312;61;20408;-69
2023/01/22 10:50:09;0.00;0.00;0.62;0.00;0.00;0.62;1.20;0.60;;;19.80;23.20;;;;;;2247442;61;20441;-69
2023/01/22 10:52:56;0.00;0.00;0.62;0.00;0.00;0.62;1.20;0.60;;;19.80;22.70;;;;;;2247510;61;20775;-69
2023/01/22 10:55:41;0.00;0.00;0.62;0.00;0.00;0.62;1.20;0.60;;;19.80;22.70;;;;;;2247349;61;20391;-70
2023/01/22 10:58:31;0.00;0.00;0.62;0.00;0.00;0.62;1.50;0.60;;;19.80;22.70;;;;;;2246714;61;20412;-70
2023/01/22 11:01:28;0.00;0.00;0.62;0.00;0.00;0.62;1.30;0.60;;;19.80;22.70;;;;;;2246528;61;20715;-70
2023/01/22 11:04:19;0.00;0.00;0.62;0.00;0.00;0.62;1.30;0.63;;;19.80;22.70;;;;;;2247194;61;20824;-70
2023/01/22 11:07:08;0.00;0.00;0.62;0.00;0.00;0.62;1.20;0.60;;;19.90;22.80;;;;;;2247481;61;20360;-70